sensor_id;sensor_type;location;lat;lon;timestamp;temperature;humidity
65048;DHT22;52089;51.362;-2.384;2022-12-22T00:02:36;7.60;99.90
65048;DHT22;52089;51.362;-2.384;2022-12-22T00:06:37;7.60;99.90
65048;DHT22;52089;51.362;-2.384;2022-12-22T00:10:37;7.60;99.90
65048;DHT22;52089;51.362;-2.384;2022-12-22T00:14:38;7.50;99.90
65048;DHT22;52089;51.362;-2.384;2022-12-22T00:18:38;7.50;99.90
65048;DHT22;52089;51.362;-2.384;2022-12-22T00:22:39;7.40;99.90
65048;DHT22;52089;51.362;-2.384;2022-12-22T00:26:39;7.40;99.90
65048;DHT22;52089;51.362;-2.384;2022-12-22T00:30:41;7.40;99.90
65048;DHT22;52089;51.362;-2.384;2022-12-22T00:34:42;7.30;99.90
65048;DHT22;52089;51.362;-2.384;2022-12-22T00:38:42;7.30;99.90
65048;DHT22;52089;51.362;-2.384;2022-12-22T00:42:43;7.30;99.90
65048;DHT22;52089;51.362;-2.384;2022-12-22T00:46:44;7.30;99.90
65048;DHT22;52089;51.362;-2.384;2022-12-22T00:50:45;7.30;99.90
65048;DHT22;52089;51.362;-2.384;2022-12-22T00:54:46;7.20;99.90
65048;DHT22;52089;51.362;-2.384;2022-12-22T00:58:48;7.20;99.90
65048;DHT22;52089;51.362;-2.384;2022-12-22T01:02:55;7.10;99.90
65048;DHT22;52089;51.362;-2.384;2022-12-22T01:06:56;7.10;99.90
65048;DHT22;52089;51.362;-2.384;2022-12-22T01:10:57;7.20;99.90
65048;DHT22;52089;51.362;-2.384;2022-12-22T01:14:58;7.10;99.90
65048;DHT22;52089;51.362;-2.384;2022-12-22T01:18:58;7.10;99.90
65048;DHT22;52089;51.362;-2.384;2022-12-22T01:22:58;7.10;99.90
65048;DHT22;52089;51.362;-2.384;2022-12-22T01:26:59;7.00;99.90
65048;DHT22;52089;51.362;-2.384;2022-12-22T01:35:35;6.90;99.90
65048;DHT22;52089;51.362;-2.384;2022-12-22T01:39:36;6.80;99.90
65048;DHT22;52089;51.362;-2.384;2022-12-22T01:43:36;6.70;99.90
65048;DHT22;52089;51.362;-2.384;2022-12-22T01:51:39;6.50;99.90
65048;DHT22;52089;51.362;-2.384;2022-12-22T01:55:39;6.50;99.90
65048;DHT22;52089;51.362;-2.384;2022-12-22T01:59:39;6.40;99.90
65048;DHT22;52089;51.362;-2.384;2022-12-22T02:03:40;6.40;99.90
65048;DHT22;52089;51.362;-2.384;2022-12-22T02:12:32;6.50;99.90
65048;DHT22;52089;51.362;-2.384;2022-12-22T02:20:56;6.40;99.90
65048;DHT22;52089;51.362;-2.384;2022-12-22T02:25:09;6.40;99.90
65048;DHT22;52089;51.362;-2.384;2022-12-22T02:29:14;6.30;99.90
65048;DHT22;52089;51.362;-2.384;2022-12-22T02:33:18;6.30;99.90
65048;DHT22;52089;51.362;-2.384;2022-12-22T02:50:02;6.20;99.90
65048;DHT22;52089;51.362;-2.384;2022-12-22T02:54:05;6.20;99.90
65048;DHT22;52089;51.362;-2.384;2022-12-22T02:58:06;6.20;99.90
65048;DHT22;52089;51.362;-2.384;2022-12-22T03:02:07;6.20;99.90
65048;DHT22;52089;51.362;-2.384;2022-12-22T03:06:08;6.30;99.90
65048;DHT22;52089;51.362;-2.384;2022-12-22T03:10:08;6.10;99.90
65048;DHT22;52089;51.362;-2.384;2022-12-22T03:14:09;6.00;99.90
65048;DHT22;52089;51.362;-2.384;2022-12-22T03:18:10;5.90;99.90
65048;DHT22;52089;51.362;-2.384;2022-12-22T03:22:11;5.80;99.90
65048;DHT22;52089;51.362;-2.384;2022-12-22T03:26:11;5.80;99.90
65048;DHT22;52089;51.362;-2.384;2022-12-22T03:29:53;5.70;99.90
65048;DHT22;52089;51.362;-2.384;2022-12-22T03:33:35;5.70;99.90
65048;DHT22;52089;51.362;-2.384;2022-12-22T03:37:17;5.70;99.90
65048;DHT22;52089;51.362;-2.384;2022-12-22T03:40:59;5.80;99.90
65048;DHT22;52089;51.362;-2.384;2022-12-22T03:44:41;5.80;99.90
65048;DHT22;52089;51.362;-2.384;2022-12-22T03:48:42;5.80;99.90
65048;DHT22;52089;51.362;-2.384;2022-12-22T03:52:24;6.00;99.90
65048;DHT22;52089;51.362;-2.384;2022-12-22T03:56:06;6.00;99.90
65048;DHT22;52089;51.362;-2.384;2022-12-22T03:59:48;6.00;99.90
65048;DHT22;52089;51.362;-2.384;2022-12-22T04:03:30;6.10;99.90
65048;DHT22;52089;51.362;-2.384;2022-12-22T04:07:12;6.20;99.90
65048;DHT22;52089;51.362;-2.384;2022-12-22T04:10:54;6.40;99.90
65048;DHT22;52089;51.362;-2.384;2022-12-22T04:14:54;6.50;99.90
65048;DHT22;52089;51.362;-2.384;2022-12-22T04:18:42;6.60;99.90
65048;DHT22;52089;51.362;-2.384;2022-12-22T04:22:24;6.70;99.90
65048;DHT22;52089;51.362;-2.384;2022-12-22T04:26:06;6.80;99.90
65048;DHT22;52089;51.362;-2.384;2022-12-22T04:29:48;6.90;99.90
65048;DHT22;52089;51.362;-2.384;2022-12-22T04:33:29;6.90;99.90
65048;DHT22;52089;51.362;-2.384;2022-12-22T04:37:11;6.90;99.90
65048;DHT22;52089;51.362;-2.384;2022-12-22T04:44:57;7.10;99.90
65048;DHT22;52089;51.362;-2.384;2022-12-22T04:48:39;7.20;99.90
65048;DHT22;52089;51.362;-2.384;2022-12-22T04:52:20;7.20;99.90
65048;DHT22;52089;51.362;-2.384;2022-12-22T04:56:05;7.10;99.90
65048;DHT22;52089;51.362;-2.384;2022-12-22T04:59:47;7.10;99.90
65048;DHT22;52089;51.362;-2.384;2022-12-22T05:03:29;7.20;99.90
65048;DHT22;52089;51.362;-2.384;2022-12-22T05:07:11;7.20;99.90
65048;DHT22;52089;51.362;-2.384;2022-12-22T05:10:52;7.30;99.90
65048;DHT22;52089;51.362;-2.384;2022-12-22T05:14:34;7.30;99.90
65048;DHT22;52089;51.362;-2.384;2022-12-22T05:18:16;7.40;99.90
65048;DHT22;52089;51.362;-2.384;2022-12-22T05:21:58;7.60;99.90
65048;DHT22;52089;51.362;-2.384;2022-12-22T05:25:39;7.60;99.90
65048;DHT22;52089;51.362;-2.384;2022-12-22T05:29:21;7.70;99.90
65048;DHT22;52089;51.362;-2.384;2022-12-22T05:33:03;7.70;99.90
65048;DHT22;52089;51.362;-2.384;2022-12-22T05:36:45;7.80;99.90
65048;DHT22;52089;51.362;-2.384;2022-12-22T05:40:26;7.80;99.90
65048;DHT22;52089;51.362;-2.384;2022-12-22T05:44:08;7.70;99.90
65048;DHT22;52089;51.362;-2.384;2022-12-22T05:47:51;7.80;99.90
65048;DHT22;52089;51.362;-2.384;2022-12-22T05:51:33;7.80;99.90
65048;DHT22;52089;51.362;-2.384;2022-12-22T05:55:14;7.80;99.90
65048;DHT22;52089;51.362;-2.384;2022-12-22T05:58:56;7.80;99.90
65048;DHT22;52089;51.362;-2.384;2022-12-22T06:02:39;7.70;99.90
65048;DHT22;52089;51.362;-2.384;2022-12-22T06:06:21;7.70;99.90
65048;DHT22;52089;51.362;-2.384;2022-12-22T06:10:04;7.60;99.90
65048;DHT22;52089;51.362;-2.384;2022-12-22T06:13:53;7.60;99.90
65048;DHT22;52089;51.362;-2.384;2022-12-22T06:17:34;7.60;99.90
65048;DHT22;52089;51.362;-2.384;2022-12-22T06:21:24;7.60;99.90
65048;DHT22;52089;51.362;-2.384;2022-12-22T06:25:06;7.60;99.90
65048;DHT22;52089;51.362;-2.384;2022-12-22T06:28:56;7.50;99.90
65048;DHT22;52089;51.362;-2.384;2022-12-22T06:32:38;7.60;99.90
65048;DHT22;52089;51.362;-2.384;2022-12-22T06:36:20;7.50;99.90
65048;DHT22;52089;51.362;-2.384;2022-12-22T06:40:03;7.60;99.90
65048;DHT22;52089;51.362;-2.384;2022-12-22T06:43:45;7.60;99.90
65048;DHT22;52089;51.362;-2.384;2022-12-22T06:47:26;7.60;99.90
65048;DHT22;52089;51.362;-2.384;2022-12-22T06:51:08;7.70;99.90
65048;DHT22;52089;51.362;-2.384;2022-12-22T06:54:51;7.70;99.90
65048;DHT22;52089;51.362;-2.384;2022-12-22T06:58:33;7.70;99.90
65048;DHT22;52089;51.362;-2.384;2022-12-22T07:06:14;7.70;99.90
65048;DHT22;52089;51.362;-2.384;2022-12-22T07:09:58;7.80;99.90
65048;DHT22;52089;51.362;-2.384;2022-12-22T07:13:43;7.80;99.90
65048;DHT22;52089;51.362;-2.384;2022-12-22T07:17:25;7.80;99.90
65048;DHT22;52089;51.362;-2.384;2022-12-22T07:21:12;7.90;99.90
65048;DHT22;52089;51.362;-2.384;2022-12-22T07:24:54;7.90;99.90
65048;DHT22;52089;51.362;-2.384;2022-12-22T07:28:38;8.00;99.90
65048;DHT22;52089;51.362;-2.384;2022-12-22T07:32:19;8.20;99.90
65048;DHT22;52089;51.362;-2.384;2022-12-22T07:36:07;8.30;99.90
65048;DHT22;52089;51.362;-2.384;2022-12-22T07:39:49;8.40;99.90
65048;DHT22;52089;51.362;-2.384;2022-12-22T07:43:31;8.50;99.90
65048;DHT22;52089;51.362;-2.384;2022-12-22T07:47:13;8.50;99.90
65048;DHT22;52089;51.362;-2.384;2022-12-22T07:50:57;8.60;99.90
65048;DHT22;52089;51.362;-2.384;2022-12-22T07:54:41;8.70;99.90
65048;DHT22;52089;51.362;-2.384;2022-12-22T07:58:23;8.90;99.90
65048;DHT22;52089;51.362;-2.384;2022-12-22T08:05:49;9.00;99.90
65048;DHT22;52089;51.362;-2.384;2022-12-22T08:13:30;9.20;99.90
65048;DHT22;52089;51.362;-2.384;2022-12-22T08:17:12;9.20;99.90
65048;DHT22;52089;51.362;-2.384;2022-12-22T08:20:54;9.30;99.90
65048;DHT22;52089;51.362;-2.384;2022-12-22T08:24:36;9.40;99.90
65048;DHT22;52089;51.362;-2.384;2022-12-22T08:28:17;9.40;99.90
65048;DHT22;52089;51.362;-2.384;2022-12-22T08:32:00;9.40;99.90
65048;DHT22;52089;51.362;-2.384;2022-12-22T08:35:42;9.50;99.90
65048;DHT22;52089;51.362;-2.384;2022-12-22T08:39:29;9.50;99.90
65048;DHT22;52089;51.362;-2.384;2022-12-22T08:43:13;9.60;99.90
65048;DHT22;52089;51.362;-2.384;2022-12-22T08:46:57;9.60;99.90
65048;DHT22;52089;51.362;-2.384;2022-12-22T08:51:04;9.60;99.90
65048;DHT22;52089;51.362;-2.384;2022-12-22T08:54:46;9.70;99.90
65048;DHT22;52089;51.362;-2.384;2022-12-22T08:58:28;9.70;99.90
65048;DHT22;52089;51.362;-2.384;2022-12-22T09:02:10;9.70;99.90
65048;DHT22;52089;51.362;-2.384;2022-12-22T09:06:01;9.80;99.90
65048;DHT22;52089;51.362;-2.384;2022-12-22T09:09:50;9.80;99.90
65048;DHT22;52089;51.362;-2.384;2022-12-22T09:13:35;9.90;99.90
65048;DHT22;52089;51.362;-2.384;2022-12-22T09:17:17;10.00;99.90
65048;DHT22;52089;51.362;-2.384;2022-12-22T09:21:00;10.00;99.90
65048;DHT22;52089;51.362;-2.384;2022-12-22T09:24:42;10.00;99.90
65048;DHT22;52089;51.362;-2.384;2022-12-22T09:28:23;10.10;99.90
65048;DHT22;52089;51.362;-2.384;2022-12-22T09:32:05;10.10;99.90
65048;DHT22;52089;51.362;-2.384;2022-12-22T09:35:47;10.10;99.90
65048;DHT22;52089;51.362;-2.384;2022-12-22T09:39:29;10.20;99.90
65048;DHT22;52089;51.362;-2.384;2022-12-22T09:43:16;10.20;99.90
65048;DHT22;52089;51.362;-2.384;2022-12-22T09:47:01;10.30;99.90
65048;DHT22;52089;51.362;-2.384;2022-12-22T09:50:44;10.30;99.90
65048;DHT22;52089;51.362;-2.384;2022-12-22T09:54:27;10.30;99.90
65048;DHT22;52089;51.362;-2.384;2022-12-22T09:58:28;10.30;99.90
65048;DHT22;52089;51.362;-2.384;2022-12-22T10:02:27;10.30;99.90
65048;DHT22;52089;51.362;-2.384;2022-12-22T10:06:35;10.30;99.90
65048;DHT22;52089;51.362;-2.384;2022-12-22T10:10:24;10.40;99.90
65048;DHT22;52089;51.362;-2.384;2022-12-22T10:14:09;10.50;99.90
65048;DHT22;52089;51.362;-2.384;2022-12-22T10:17:53;10.50;99.90
65048;DHT22;52089;51.362;-2.384;2022-12-22T10:21:48;10.60;99.90
65048;DHT22;52089;51.362;-2.384;2022-12-22T10:25:34;10.50;99.90
65048;DHT22;52089;51.362;-2.384;2022-12-22T10:29:36;10.50;99.90
65048;DHT22;52089;51.362;-2.384;2022-12-22T10:33:18;10.60;99.90
65048;DHT22;52089;51.362;-2.384;2022-12-22T10:37:02;10.60;99.90
65048;DHT22;52089;51.362;-2.384;2022-12-22T10:40:47;10.60;99.90
65048;DHT22;52089;51.362;-2.384;2022-12-22T10:44:31;10.70;99.90
65048;DHT22;52089;51.362;-2.384;2022-12-22T10:48:15;10.70;99.90
65048;DHT22;52089;51.362;-2.384;2022-12-22T10:56:04;10.70;99.90
65048;DHT22;52089;51.362;-2.384;2022-12-22T11:03:33;10.70;99.90
65048;DHT22;52089;51.362;-2.384;2022-12-22T11:07:15;10.80;99.90
65048;DHT22;52089;51.362;-2.384;2022-12-22T11:19:43;10.90;99.90
65048;DHT22;52089;51.362;-2.384;2022-12-22T11:27:34;10.90;99.90
65048;DHT22;52089;51.362;-2.384;2022-12-22T11:35:34;11.00;99.90
65048;DHT22;52089;51.362;-2.384;2022-12-22T11:39:44;11.00;99.90
65048;DHT22;52089;51.362;-2.384;2022-12-22T11:52:12;11.20;99.90
65048;DHT22;52089;51.362;-2.384;2022-12-22T12:00:09;11.20;99.90
65048;DHT22;52089;51.362;-2.384;2022-12-22T12:08:16;11.30;99.90
65048;DHT22;52089;51.362;-2.384;2022-12-22T12:16:12;11.30;99.90
65048;DHT22;52089;51.362;-2.384;2022-12-22T12:20:10;11.30;99.90
65048;DHT22;52089;51.362;-2.384;2022-12-22T12:32:02;11.40;99.90
65048;DHT22;52089;51.362;-2.384;2022-12-22T12:43:28;11.40;99.90
65048;DHT22;52089;51.362;-2.384;2022-12-22T12:47:21;11.40;99.90
65048;DHT22;52089;51.362;-2.384;2022-12-22T13:11:44;11.30;99.90
65048;DHT22;52089;51.362;-2.384;2022-12-22T13:15:48;11.30;99.90
65048;DHT22;52089;51.362;-2.384;2022-12-22T13:19:30;11.30;99.90
65048;DHT22;52089;51.362;-2.384;2022-12-22T13:23:13;11.30;99.90
65048;DHT22;52089;51.362;-2.384;2022-12-22T13:27:02;11.30;99.90
65048;DHT22;52089;51.362;-2.384;2022-12-22T13:30:47;11.30;99.90
65048;DHT22;52089;51.362;-2.384;2022-12-22T13:39:05;11.40;99.90
65048;DHT22;52089;51.362;-2.384;2022-12-22T13:42:59;11.40;99.90
65048;DHT22;52089;51.362;-2.384;2022-12-22T13:46:42;11.40;99.90
65048;DHT22;52089;51.362;-2.384;2022-12-22T13:50:31;11.40;99.90
65048;DHT22;52089;51.362;-2.384;2022-12-22T13:54:25;11.40;99.90
65048;DHT22;52089;51.362;-2.384;2022-12-22T13:58:26;11.40;99.90
65048;DHT22;52089;51.362;-2.384;2022-12-22T14:05:51;11.40;99.90
65048;DHT22;52089;51.362;-2.384;2022-12-22T14:09:33;11.50;99.90
65048;DHT22;52089;51.362;-2.384;2022-12-22T14:13:17;11.60;99.90
65048;DHT22;52089;51.362;-2.384;2022-12-22T14:17:00;11.60;99.90
65048;DHT22;52089;51.362;-2.384;2022-12-22T14:20:45;11.60;99.90
65048;DHT22;52089;51.362;-2.384;2022-12-22T14:24:31;11.60;99.90
65048;DHT22;52089;51.362;-2.384;2022-12-22T14:28:21;11.60;99.90
65048;DHT22;52089;51.362;-2.384;2022-12-22T14:32:03;11.60;99.90
65048;DHT22;52089;51.362;-2.384;2022-12-22T14:35:45;11.60;99.90
65048;DHT22;52089;51.362;-2.384;2022-12-22T14:39:29;11.60;99.90
65048;DHT22;52089;51.362;-2.384;2022-12-22T14:51:00;11.50;99.90
65048;DHT22;52089;51.362;-2.384;2022-12-22T14:54:46;11.50;99.90
65048;DHT22;52089;51.362;-2.384;2022-12-22T14:58:32;11.50;99.90
65048;DHT22;52089;51.362;-2.384;2022-12-22T15:02:27;11.50;99.90
65048;DHT22;52089;51.362;-2.384;2022-12-22T15:10:08;11.50;99.90
65048;DHT22;52089;51.362;-2.384;2022-12-22T15:13:58;11.60;99.90
65048;DHT22;52089;51.362;-2.384;2022-12-22T15:17:47;11.50;99.90
65048;DHT22;52089;51.362;-2.384;2022-12-22T15:21:29;11.50;99.90
65048;DHT22;52089;51.362;-2.384;2022-12-22T15:25:12;11.50;99.90
65048;DHT22;52089;51.362;-2.384;2022-12-22T15:28:54;11.50;99.90
65048;DHT22;52089;51.362;-2.384;2022-12-22T15:32:37;11.40;99.90
65048;DHT22;52089;51.362;-2.384;2022-12-22T15:36:18;11.50;99.90
65048;DHT22;52089;51.362;-2.384;2022-12-22T15:40:00;11.40;99.90
65048;DHT22;52089;51.362;-2.384;2022-12-22T15:43:42;11.40;99.90
65048;DHT22;52089;51.362;-2.384;2022-12-22T15:47:43;11.40;99.90
65048;DHT22;52089;51.362;-2.384;2022-12-22T15:51:27;11.30;99.90
65048;DHT22;52089;51.362;-2.384;2022-12-22T15:55:13;11.30;99.90
65048;DHT22;52089;51.362;-2.384;2022-12-22T15:58:55;11.20;99.90
65048;DHT22;52089;51.362;-2.384;2022-12-22T16:02:37;11.10;99.90
65048;DHT22;52089;51.362;-2.384;2022-12-22T16:06:20;11.10;99.90
65048;DHT22;52089;51.362;-2.384;2022-12-22T16:10:03;11.00;99.90
65048;DHT22;52089;51.362;-2.384;2022-12-22T16:13:47;11.00;99.90
65048;DHT22;52089;51.362;-2.384;2022-12-22T16:17:29;11.00;99.90
65048;DHT22;52089;51.362;-2.384;2022-12-22T16:21:15;10.90;99.90
65048;DHT22;52089;51.362;-2.384;2022-12-22T16:24:58;10.90;99.90
65048;DHT22;52089;51.362;-2.384;2022-12-22T16:28:42;10.80;99.90
65048;DHT22;52089;51.362;-2.384;2022-12-22T16:32:27;10.80;99.90
65048;DHT22;52089;51.362;-2.384;2022-12-22T16:36:09;10.70;99.90
65048;DHT22;52089;51.362;-2.384;2022-12-22T16:39:50;10.70;99.90
65048;DHT22;52089;51.362;-2.384;2022-12-22T16:43:35;10.70;99.90
65048;DHT22;52089;51.362;-2.384;2022-12-22T16:47:33;10.70;99.90
65048;DHT22;52089;51.362;-2.384;2022-12-22T16:51:23;10.70;99.90
65048;DHT22;52089;51.362;-2.384;2022-12-22T16:55:16;10.70;99.90
65048;DHT22;52089;51.362;-2.384;2022-12-22T16:58:58;10.70;99.90
65048;DHT22;52089;51.362;-2.384;2022-12-22T17:02:45;10.70;99.90
65048;DHT22;52089;51.362;-2.384;2022-12-22T17:06:29;10.60;99.90
65048;DHT22;52089;51.362;-2.384;2022-12-22T17:10:14;10.60;99.90
65048;DHT22;52089;51.362;-2.384;2022-12-22T17:14:13;10.60;99.90
65048;DHT22;52089;51.362;-2.384;2022-12-22T17:17:56;10.60;99.90
65048;DHT22;52089;51.362;-2.384;2022-12-22T17:21:38;10.60;99.90
65048;DHT22;52089;51.362;-2.384;2022-12-22T17:25:24;10.60;99.90
65048;DHT22;52089;51.362;-2.384;2022-12-22T17:29:20;10.60;99.90
65048;DHT22;52089;51.362;-2.384;2022-12-22T17:33:04;10.60;99.90
65048;DHT22;52089;51.362;-2.384;2022-12-22T17:36:47;10.60;99.90
65048;DHT22;52089;51.362;-2.384;2022-12-22T17:40:29;10.50;99.90
65048;DHT22;52089;51.362;-2.384;2022-12-22T17:44:19;10.50;99.90
65048;DHT22;52089;51.362;-2.384;2022-12-22T17:48:01;10.50;99.90
65048;DHT22;52089;51.362;-2.384;2022-12-22T17:51:43;10.50;99.90
65048;DHT22;52089;51.362;-2.384;2022-12-22T17:55:27;10.50;99.90
65048;DHT22;52089;51.362;-2.384;2022-12-22T17:59:29;10.50;99.90
65048;DHT22;52089;51.362;-2.384;2022-12-22T18:03:12;10.50;99.90
65048;DHT22;52089;51.362;-2.384;2022-12-22T18:06:55;10.50;99.90
65048;DHT22;52089;51.362;-2.384;2022-12-22T18:10:38;10.40;99.90
65048;DHT22;52089;51.362;-2.384;2022-12-22T18:14:21;10.40;99.90
65048;DHT22;52089;51.362;-2.384;2022-12-22T18:18:12;10.50;99.90
65048;DHT22;52089;51.362;-2.384;2022-12-22T18:21:54;10.50;99.90
65048;DHT22;52089;51.362;-2.384;2022-12-22T18:25:36;10.50;99.90
65048;DHT22;52089;51.362;-2.384;2022-12-22T18:29:18;10.50;99.90
65048;DHT22;52089;51.362;-2.384;2022-12-22T18:33:00;10.40;99.90
65048;DHT22;52089;51.362;-2.384;2022-12-22T18:36:42;10.40;99.90
65048;DHT22;52089;51.362;-2.384;2022-12-22T18:40:29;10.40;99.90
65048;DHT22;52089;51.362;-2.384;2022-12-22T18:44:16;10.40;99.90
65048;DHT22;52089;51.362;-2.384;2022-12-22T18:47:58;10.40;99.90
65048;DHT22;52089;51.362;-2.384;2022-12-22T18:51:49;10.40;99.90
65048;DHT22;52089;51.362;-2.384;2022-12-22T18:55:34;10.30;99.90
65048;DHT22;52089;51.362;-2.384;2022-12-22T18:59:22;10.30;99.90
65048;DHT22;52089;51.362;-2.384;2022-12-22T19:03:20;10.30;99.90
65048;DHT22;52089;51.362;-2.384;2022-12-22T19:07:02;10.20;99.90
65048;DHT22;52089;51.362;-2.384;2022-12-22T19:10:57;10.20;99.90
65048;DHT22;52089;51.362;-2.384;2022-12-22T19:14:41;10.10;99.90
65048;DHT22;52089;51.362;-2.384;2022-12-22T19:18:24;10.10;99.90
65048;DHT22;52089;51.362;-2.384;2022-12-22T19:22:11;10.00;99.90
65048;DHT22;52089;51.362;-2.384;2022-12-22T19:25:57;10.00;99.90
65048;DHT22;52089;51.362;-2.384;2022-12-22T19:29:43;10.00;99.90
65048;DHT22;52089;51.362;-2.384;2022-12-22T19:33:38;10.00;99.90
65048;DHT22;52089;51.362;-2.384;2022-12-22T19:37:23;10.00;99.90
65048;DHT22;52089;51.362;-2.384;2022-12-22T19:45:18;9.90;99.90
65048;DHT22;52089;51.362;-2.384;2022-12-22T19:49:02;9.80;99.90
65048;DHT22;52089;51.362;-2.384;2022-12-22T19:52:44;9.80;99.90
65048;DHT22;52089;51.362;-2.384;2022-12-22T20:00:23;9.70;99.90
65048;DHT22;52089;51.362;-2.384;2022-12-22T20:04:10;9.70;99.90
65048;DHT22;52089;51.362;-2.384;2022-12-22T20:07:54;9.60;99.90
65048;DHT22;52089;51.362;-2.384;2022-12-22T20:11:36;9.70;99.90
65048;DHT22;52089;51.362;-2.384;2022-12-22T20:15:26;9.60;99.90
65048;DHT22;52089;51.362;-2.384;2022-12-22T20:19:13;9.60;99.90
65048;DHT22;52089;51.362;-2.384;2022-12-22T20:22:56;9.60;99.90
65048;DHT22;52089;51.362;-2.384;2022-12-22T20:26:39;9.60;99.90
65048;DHT22;52089;51.362;-2.384;2022-12-22T20:30:27;9.60;99.90
65048;DHT22;52089;51.362;-2.384;2022-12-22T20:34:09;9.60;99.90
65048;DHT22;52089;51.362;-2.384;2022-12-22T20:37:51;9.50;99.90
65048;DHT22;52089;51.362;-2.384;2022-12-22T20:41:32;9.50;99.90
65048;DHT22;52089;51.362;-2.384;2022-12-22T20:45:14;9.50;99.90
65048;DHT22;52089;51.362;-2.384;2022-12-22T20:48:59;9.50;99.90
65048;DHT22;52089;51.362;-2.384;2022-12-22T20:52:41;9.50;99.90
65048;DHT22;52089;51.362;-2.384;2022-12-22T20:56:35;9.50;99.90
65048;DHT22;52089;51.362;-2.384;2022-12-22T21:00:18;9.50;99.90
65048;DHT22;52089;51.362;-2.384;2022-12-22T21:04:00;9.40;99.90
65048;DHT22;52089;51.362;-2.384;2022-12-22T21:07:43;9.40;99.90
65048;DHT22;52089;51.362;-2.384;2022-12-22T21:11:27;9.40;99.90
65048;DHT22;52089;51.362;-2.384;2022-12-22T21:15:18;9.40;99.90
65048;DHT22;52089;51.362;-2.384;2022-12-22T21:19:04;9.30;99.90
65048;DHT22;52089;51.362;-2.384;2022-12-22T21:22:46;9.40;99.90
65048;DHT22;52089;51.362;-2.384;2022-12-22T21:26:39;9.40;99.90
65048;DHT22;52089;51.362;-2.384;2022-12-22T21:30:25;9.40;99.90
65048;DHT22;52089;51.362;-2.384;2022-12-22T21:38:15;9.40;99.90
65048;DHT22;52089;51.362;-2.384;2022-12-22T21:41:57;9.40;99.90
65048;DHT22;52089;51.362;-2.384;2022-12-22T21:45:49;9.30;99.90
65048;DHT22;52089;51.362;-2.384;2022-12-22T21:49:32;9.40;99.90
65048;DHT22;52089;51.362;-2.384;2022-12-22T21:53:16;9.30;99.90
65048;DHT22;52089;51.362;-2.384;2022-12-22T21:57:03;9.30;99.90
65048;DHT22;52089;51.362;-2.384;2022-12-22T22:00:47;9.40;99.90
65048;DHT22;52089;51.362;-2.384;2022-12-22T22:04:29;9.40;99.90
65048;DHT22;52089;51.362;-2.384;2022-12-22T22:08:11;9.30;99.90
65048;DHT22;52089;51.362;-2.384;2022-12-22T22:11:53;9.30;99.90
65048;DHT22;52089;51.362;-2.384;2022-12-22T22:15:53;9.40;99.90
65048;DHT22;52089;51.362;-2.384;2022-12-22T22:19:35;9.30;99.90
65048;DHT22;52089;51.362;-2.384;2022-12-22T22:23:17;9.30;99.90
65048;DHT22;52089;51.362;-2.384;2022-12-22T22:26:58;9.40;99.90
65048;DHT22;52089;51.362;-2.384;2022-12-22T22:30:40;9.30;99.90
65048;DHT22;52089;51.362;-2.384;2022-12-22T22:34:22;9.40;99.90
65048;DHT22;52089;51.362;-2.384;2022-12-22T22:38:04;9.40;99.90
65048;DHT22;52089;51.362;-2.384;2022-12-22T22:41:46;9.40;99.90
65048;DHT22;52089;51.362;-2.384;2022-12-22T22:45:27;9.40;99.90
65048;DHT22;52089;51.362;-2.384;2022-12-22T22:49:09;9.30;99.90
65048;DHT22;52089;51.362;-2.384;2022-12-22T22:52:51;9.40;99.90
65048;DHT22;52089;51.362;-2.384;2022-12-22T22:56:33;9.30;99.90
65048;DHT22;52089;51.362;-2.384;2022-12-22T23:00:17;9.30;99.90
65048;DHT22;52089;51.362;-2.384;2022-12-22T23:03:59;9.30;99.90
65048;DHT22;52089;51.362;-2.384;2022-12-22T23:07:41;9.30;99.90
65048;DHT22;52089;51.362;-2.384;2022-12-22T23:11:23;9.30;99.90
65048;DHT22;52089;51.362;-2.384;2022-12-22T23:15:05;9.30;99.90
65048;DHT22;52089;51.362;-2.384;2022-12-22T23:18:47;9.30;99.90
65048;DHT22;52089;51.362;-2.384;2022-12-22T23:22:29;9.30;99.90
65048;DHT22;52089;51.362;-2.384;2022-12-22T23:26:11;9.20;99.90
65048;DHT22;52089;51.362;-2.384;2022-12-22T23:29:52;9.30;99.90
65048;DHT22;52089;51.362;-2.384;2022-12-22T23:33:34;9.20;99.90
65048;DHT22;52089;51.362;-2.384;2022-12-22T23:37:16;9.20;99.90
65048;DHT22;52089;51.362;-2.384;2022-12-22T23:41:01;9.20;99.90
65048;DHT22;52089;51.362;-2.384;2022-12-22T23:44:44;9.20;99.90
65048;DHT22;52089;51.362;-2.384;2022-12-22T23:48:25;9.10;99.90
65048;DHT22;52089;51.362;-2.384;2022-12-22T23:52:07;9.20;99.90
65048;DHT22;52089;51.362;-2.384;2022-12-22T23:55:49;9.10;99.90
65048;DHT22;52089;51.362;-2.384;2022-12-22T23:59:30;9.10;99.90
